Time;durP1;ratioP1;P1;durP2;ratioP2;P2;SDS_P1;SDS_P2;PMS_P1;PMS_P2;Temp;Humidity;BMP_temperature;BMP_pressure;BME280_temperature;BME280_humidity;BME280_pressure;Samples;Min_cycle;Max_cycle;Signal;HPM_P1;HPM_P2
2021/09/02 00:01:27;;;;;;;2.00;0.77;;;12.90;99.90;;;;;;4977425;28;20445;-84
2021/09/02 00:03:54;;;;;;;0.50;0.50;;;12.80;99.90;;;;;;4977061;28;21000;-83
2021/09/02 00:06:21;;;;;;;1.70;0.47;;;12.80;99.90;;;;;;4977359;28;20445;-83
2021/09/02 00:08:47;;;;;;;0.90;0.40;;;12.80;99.90;;;;;;4977319;28;20460;-82
2021/09/02 00:11:16;;;;;;;0.80;0.40;;;12.80;99.90;;;;;;4977026;28;20484;-83
2021/09/02 00:13:42;;;;;;;0.50;0.50;;;12.70;99.90;;;;;;4976934;28;20469;-82
2021/09/02 00:16:09;;;;;;;2.00;0.77;;;12.70;99.90;;;;;;4976852;28;20972;-82
2021/09/02 00:18:36;;;;;;;0.90;0.90;;;12.70;99.90;;;;;;4977921;28;20458;-82
2021/09/02 00:21:03;;;;;;;1.53;1.30;;;12.70;99.90;;;;;;4976900;28;20775;-82
2021/09/02 00:23:30;;;;;;;0.50;0.50;;;12.70;99.90;;;;;;4976311;28;20477;-82
2021/09/02 00:25:56;;;;;;;1.90;0.60;;;12.70;99.90;;;;;;4977054;28;20458;-82
2021/09/02 00:28:24;;;;;;;0.87;0.80;;;12.60;99.90;;;;;;4976726;28;20437;-83
2021/09/02 00:30:51;;;;;;;0.70;0.70;;;12.60;99.90;;;;;;4977141;28;20485;-83
2021/09/02 00:33:19;;;;;;;0.70;0.50;;;12.50;99.90;;;;;;4977047;28;20469;-83
2021/09/02 00:35:46;;;;;;;0.83;0.50;;;12.50;99.90;;;;;;4976941;28;20461;-83
2021/09/02 00:38:13;;;;;;;1.70;0.80;;;12.50;99.90;;;;;;4976845;28;20433;-83
2021/09/02 00:40:40;;;;;;;0.93;0.70;;;12.50;99.90;;;;;;4976760;28;20454;-83
2021/09/02 00:43:07;;;;;;;1.33;0.70;;;12.50;99.90;;;;;;4976651;28;20465;-83
2021/09/02 00:45:35;;;;;;;0.60;0.53;;;12.50;99.90;;;;;;4976743;28;20450;-84
2021/09/02 00:48:02;;;;;;;1.70;0.77;;;12.50;99.90;;;;;;4976146;28;20846;-83
2021/09/02 00:50:30;;;;;;;0.40;0.30;;;12.50;99.90;;;;;;4976308;28;20944;-85
2021/09/02 00:52:59;;;;;;;1.70;0.50;;;12.40;99.90;;;;;;4976214;28;20919;-85
2021/09/02 00:55:26;;;;;;;0.97;0.50;;;12.40;99.90;;;;;;4976489;28;20453;-85
2021/09/02 00:57:53;;;;;;;0.57;0.50;;;12.40;99.90;;;;;;4976479;28;20457;-85
2021/09/02 01:00:20;;;;;;;1.23;0.80;;;12.40;99.90;;;;;;4976109;28;20448;-85
2021/09/02 01:02:48;;;;;;;0.90;0.70;;;12.40;99.90;;;;;;4975983;28;20452;-85
2021/09/02 01:05:16;;;;;;;0.83;0.70;;;12.40;99.90;;;;;;4976278;28;20462;-85
2021/09/02 01:07:43;;;;;;;1.57;0.80;;;12.40;99.90;;;;;;4976293;28;20449;-85
2021/09/02 01:10:11;;;;;;;1.13;1.03;;;12.40;99.90;;;;;;4975868;28;20460;-85
2021/09/02 01:12:41;;;;;;;3.17;0.90;;;12.30;99.90;;;;;;4976045;28;20492;-85
2021/09/02 01:15:10;;;;;;;0.50;0.50;;;12.40;99.90;;;;;;4975813;28;20458;-85
2021/09/02 01:17:37;;;;;;;2.63;1.03;;;12.40;99.90;;;;;;4975971;28;20934;-85
2021/09/02 01:20:08;;;;;;;0.50;0.50;;;12.40;99.90;;;;;;4976075;28;20457;-85
2021/09/02 01:22:35;;;;;;;3.00;1.13;;;12.30;99.90;;;;;;4975941;28;20437;-85
2021/09/02 01:25:07;;;;;;;2.17;0.70;;;12.30;99.90;;;;;;4975917;28;20457;-85
2021/09/02 01:27:35;;;;;;;0.60;0.60;;;12.30;99.90;;;;;;4975982;28;20458;-85
2021/09/02 01:30:04;;;;;;;2.30;0.90;;;12.30;99.90;;;;;;4975831;28;20457;-85
2021/09/02 01:32:33;;;;;;;0.90;0.70;;;12.20;99.90;;;;;;4975741;28;20481;-85
2021/09/02 01:35:01;;;;;;;0.60;0.60;;;12.20;99.90;;;;;;4974749;28;20461;-85
2021/09/02 01:37:38;;;;;;;0.90;0.60;;;12.20;99.90;;;;;;4975546;28;20941;-82
2021/09/02 01:40:08;;;;;;;0.83;0.80;;;12.10;99.90;;;;;;4975631;28;20441;-83
2021/09/02 01:42:35;;;;;;;1.23;0.80;;;12.10;99.90;;;;;;4976624;28;20453;-83
2021/09/02 01:45:02;;;;;;;1.33;1.23;;;12.10;99.90;;;;;;4975569;28;20827;-83
2021/09/02 01:47:29;;;;;;;1.43;0.80;;;12.10;99.90;;;;;;4975183;28;20464;-83
2021/09/02 01:50:03;;;;;;;1.30;0.70;;;12.10;99.90;;;;;;4975235;28;20803;-83
2021/09/02 01:52:30;;;;;;;0.70;0.70;;;12.00;99.90;;;;;;4975081;28;20472;-83
2021/09/02 01:54:57;;;;;;;1.17;0.50;;;12.00;99.90;;;;;;4975310;28;20485;-83
2021/09/02 01:57:25;;;;;;;0.40;0.40;;;12.00;99.90;;;;;;4975319;28;20489;-83
2021/09/02 01:59:52;;;;;;;1.60;0.80;;;12.00;99.90;;;;;;4975286;28;20458;-83
2021/09/02 02:02:18;;;;;;;0.60;0.60;;;11.90;99.90;;;;;;4974937;28;20830;-83
2021/09/02 02:04:45;;;;;;;1.03;0.70;;;11.90;99.90;;;;;;4974844;28;20844;-83
2021/09/02 02:07:12;;;;;;;1.17;0.60;;;11.90;99.90;;;;;;4974916;28;20442;-82
2021/09/02 02:09:39;;;;;;;2.20;1.23;;;12.00;99.90;;;;;;4974871;28;20465;-83
2021/09/02 02:12:07;;;;;;;1.60;0.73;;;11.90;99.90;;;;;;4975280;28;20522;-83
2021/09/02 02:14:35;;;;;;;1.77;0.80;;;11.90;99.90;;;;;;4974725;28;20800;-83
2021/09/02 02:17:02;;;;;;;0.40;0.40;;;11.90;99.90;;;;;;4975172;28;20481;-83
2021/09/02 02:19:29;;;;;;;0.53;0.53;;;11.90;99.90;;;;;;4975256;28;20449;-82
2021/09/02 02:21:55;;;;;;;0.87;0.73;;;11.80;99.90;;;;;;4974739;28;20454;-85
2021/09/02 02:24:22;;;;;;;0.70;0.70;;;11.80;99.90;;;;;;4974797;28;20461;-85
2021/09/02 02:26:49;;;;;;;1.53;0.87;;;11.90;99.90;;;;;;4975066;28;20449;-85
2021/09/02 02:29:16;;;;;;;1.03;0.97;;;11.80;99.90;;;;;;4974793;28;20941;-86
2021/09/02 02:31:44;;;;;;;0.60;0.60;;;11.80;99.90;;;;;;4974672;28;21004;-85
2021/09/02 02:34:11;;;;;;;0.63;0.63;;;11.80;99.90;;;;;;4974646;28;20467;-86
2021/09/02 02:36:38;;;;;;;1.80;1.07;;;11.80;99.90;;;;;;4975024;28;20942;-85
2021/09/02 02:39:05;;;;;;;2.20;0.87;;;11.70;99.90;;;;;;4974763;28;20449;-85
2021/09/02 02:41:33;;;;;;;2.17;0.90;;;11.70;99.90;;;;;;4974791;28;20464;-85
2021/09/02 02:43:59;;;;;;;1.13;0.60;;;11.70;99.90;;;;;;4974665;28;20478;-86
2021/09/02 02:46:26;;;;;;;3.37;0.70;;;11.60;99.90;;;;;;4974217;28;20823;-86
2021/09/02 02:48:55;;;;;;;0.80;0.50;;;11.70;99.90;;;;;;4974690;28;20493;-85
2021/09/02 02:51:22;;;;;;;5.63;1.10;;;11.60;99.90;;;;;;4974282;28;21061;-86
2021/09/02 02:53:49;;;;;;;1.00;0.93;;;11.60;99.90;;;;;;4974436;28;20485;-85
2021/09/02 02:56:16;;;;;;;0.50;0.50;;;11.60;99.90;;;;;;4974594;28;20805;-85
2021/09/02 02:58:43;;;;;;;0.40;0.40;;;11.60;99.90;;;;;;4974335;28;20438;-86
2021/09/02 03:01:09;;;;;;;0.97;0.70;;;11.60;99.90;;;;;;4974307;28;20437;-86
2021/09/02 03:03:36;;;;;;;0.60;0.60;;;11.60;99.90;;;;;;4974518;28;20465;-85
2021/09/02 03:06:05;;;;;;;0.60;0.40;;;11.50;99.90;;;;;;4974297;28;20968;-85
2021/09/02 03:08:32;;;;;;;1.30;0.93;;;11.50;99.90;;;;;;4975119;28;20460;-85
2021/09/02 03:10:58;;;;;;;1.13;0.80;;;11.50;99.90;;;;;;4974716;28;20455;-85
2021/09/02 03:13:25;;;;;;;0.90;0.60;;;11.50;99.90;;;;;;4974113;28;20875;-86
2021/09/02 03:15:52;;;;;;;2.00;0.70;;;11.50;99.90;;;;;;4974270;28;20448;-86
2021/09/02 03:18:19;;;;;;;1.13;0.93;;;11.40;99.90;;;;;;4974501;28;20450;-86
2021/09/02 03:20:45;;;;;;;5.83;1.10;;;11.40;99.90;;;;;;4974662;28;20461;-86
2021/09/02 03:23:14;;;;;;;2.60;0.93;;;11.40;99.90;;;;;;4974106;28;20474;-86
2021/09/02 03:25:40;;;;;;;0.77;0.77;;;11.30;99.90;;;;;;4974144;28;20525;-86
2021/09/02 03:28:07;;;;;;;1.07;0.57;;;11.30;99.90;;;;;;4974410;28;20459;-86
2021/09/02 03:30:34;;;;;;;0.47;0.47;;;11.30;99.90;;;;;;4974319;28;20437;-85
2021/09/02 03:33:00;;;;;;;1.47;0.57;;;11.20;99.90;;;;;;4974123;28;20500;-85
2021/09/02 03:35:27;;;;;;;2.77;0.70;;;11.30;99.90;;;;;;4974295;28;20465;-85
2021/09/02 03:37:54;;;;;;;1.33;0.67;;;11.20;99.90;;;;;;4974244;28;20815;-85
2021/09/02 03:40:22;;;;;;;0.50;0.50;;;11.20;99.90;;;;;;4974219;28;20460;-85
2021/09/02 03:42:49;;;;;;;1.73;0.77;;;11.20;99.90;;;;;;4974212;28;20437;-85
2021/09/02 03:45:16;;;;;;;1.17;0.50;;;11.20;99.90;;;;;;4973971;28;20977;-85
2021/09/02 03:47:47;;;;;;;2.03;0.90;;;11.20;99.90;;;;;;4973625;28;20485;-85
2021/09/02 03:50:15;;;;;;;1.00;0.50;;;11.20;99.90;;;;;;4973947;28;20448;-85
2021/09/02 03:52:42;;;;;;;1.83;1.27;;;11.10;99.90;;;;;;4974190;28;20496;-85
2021/09/02 03:55:10;;;;;;;1.57;0.70;;;11.10;99.90;;;;;;4974252;28;20448;-85
2021/09/02 03:57:38;;;;;;;3.20;0.83;;;11.10;99.90;;;;;;4973771;28;20460;-85
2021/09/02 04:00:07;;;;;;;0.67;0.67;;;11.10;99.90;;;;;;4977348;28;20818;-85
2021/09/02 04:02:34;;;;;;;1.43;0.60;;;11.00;99.90;;;;;;4977613;28;20807;-85
2021/09/02 04:05:02;;;;;;;1.07;0.80;;;11.00;99.90;;;;;;4977509;28;20453;-85
2021/09/02 04:07:28;;;;;;;1.53;0.60;;;11.00;99.90;;;;;;4977467;28;20915;-85
2021/09/02 04:09:55;;;;;;;3.97;0.90;;;11.00;99.90;;;;;;4977198;28;20933;-85
2021/09/02 04:12:22;;;;;;;2.43;1.37;;;11.00;99.90;;;;;;4977028;28;20477;-85
2021/09/02 04:14:50;;;;;;;0.73;0.50;;;11.00;99.90;;;;;;4977283;28;20488;-85
2021/09/02 04:17:17;;;;;;;1.40;0.97;;;11.00;99.90;;;;;;4977329;28;20454;-85
2021/09/02 04:19:44;;;;;;;0.40;0.40;;;11.00;99.90;;;;;;4977277;28;20453;-85
2021/09/02 04:22:10;;;;;;;0.57;0.57;;;11.00;99.90;;;;;;4977263;28;20445;-85
2021/09/02 04:24:37;;;;;;;1.00;0.83;;;11.00;99.90;;;;;;4977073;28;20469;-85
2021/09/02 04:27:04;;;;;;;3.43;0.50;;;11.00;99.90;;;;;;4977156;28;20450;-85
2021/09/02 04:29:31;;;;;;;0.50;0.50;;;11.00;99.90;;;;;;4977085;28;20458;-85
2021/09/02 04:31:59;;;;;;;0.70;0.70;;;11.00;99.90;;;;;;4976951;28;20445;-85
2021/09/02 04:34:26;;;;;;;0.50;0.50;;;11.00;99.90;;;;;;4976969;28;20478;-85
2021/09/02 04:36:53;;;;;;;0.80;0.60;;;11.00;99.90;;;;;;4976647;28;20960;-85
2021/09/02 04:39:19;;;;;;;4.63;1.20;;;11.00;99.90;;;;;;4976917;28;20449;-85
2021/09/02 04:41:47;;;;;;;0.50;0.50;;;11.00;99.90;;;;;;4976993;28;20454;-85
2021/09/02 04:44:14;;;;;;;0.80;0.60;;;10.90;99.90;;;;;;4976435;28;20465;-85
2021/09/02 04:46:41;;;;;;;2.00;0.67;;;10.90;99.90;;;;;;4976381;28;20457;-85
2021/09/02 04:49:09;;;;;;;0.97;0.97;;;10.90;99.90;;;;;;4976487;28;20493;-85
2021/09/02 04:51:36;;;;;;;0.97;0.60;;;10.90;99.90;;;;;;4976639;28;20454;-85
2021/09/02 04:54:02;;;;;;;6.70;0.60;;;10.90;99.90;;;;;;4976212;28;20496;-85
2021/09/02 04:56:29;;;;;;;2.20;1.10;;;10.90;99.90;;;;;;4976577;28;20460;-85
2021/09/02 04:58:56;;;;;;;0.70;0.50;;;11.00;99.90;;;;;;4976286;28;20803;-85
2021/09/02 05:01:23;;;;;;;1.17;0.60;;;11.00;99.90;;;;;;4976480;28;20975;-85
2021/09/02 05:03:49;;;;;;;0.70;0.63;;;11.10;99.90;;;;;;4976365;28;20477;-85
2021/09/02 05:06:17;;;;;;;2.00;0.90;;;11.10;99.90;;;;;;4976063;28;20961;-85
2021/09/02 05:08:44;;;;;;;0.50;0.50;;;11.10;99.90;;;;;;4976127;28;20442;-84
2021/09/02 05:11:11;;;;;;;0.83;0.83;;;11.10;99.90;;;;;;4976246;28;20449;-85
2021/09/02 05:13:37;;;;;;;2.20;0.63;;;11.10;99.90;;;;;;4976097;28;20520;-85
2021/09/02 05:16:05;;;;;;;1.10;0.70;;;11.20;99.90;;;;;;4976434;28;20453;-85
2021/09/02 05:18:31;;;;;;;2.97;0.80;;;11.20;99.90;;;;;;4976426;28;20453;-85
2021/09/02 05:20:58;;;;;;;1.17;0.70;;;11.20;99.90;;;;;;4976158;28;20442;-84
2021/09/02 05:23:26;;;;;;;1.00;0.73;;;11.20;99.90;;;;;;4975863;28;20457;-85
2021/09/02 05:25:53;;;;;;;1.00;0.60;;;11.30;99.90;;;;;;4976175;28;20457;-85
2021/09/02 05:28:19;;;;;;;2.60;0.80;;;11.30;99.90;;;;;;4976003;28;20433;-85
2021/09/02 05:30:46;;;;;;;1.57;0.90;;;11.30;99.90;;;;;;4975976;28;20438;-85
2021/09/02 05:33:13;;;;;;;1.13;0.50;;;11.30;99.90;;;;;;4975304;28;20844;-85
2021/09/02 05:35:40;;;;;;;1.30;0.60;;;11.30;99.90;;;;;;4975513;28;20449;-85
2021/09/02 05:38:10;;;;;;;1.90;0.80;;;11.30;99.90;;;;;;4975829;28;20945;-84
2021/09/02 05:40:38;;;;;;;1.23;0.77;;;11.30;99.90;;;;;;4975836;28;20445;-85
2021/09/02 05:43:05;;;;;;;1.07;1.00;;;11.30;99.90;;;;;;4975349;28;20473;-85
2021/09/02 05:45:32;;;;;;;0.70;0.67;;;11.30;99.90;;;;;;4975731;28;20457;-85
2021/09/02 05:47:59;;;;;;;0.50;0.50;;;11.30;99.90;;;;;;4975210;28;20495;-85
2021/09/02 05:50:27;;;;;;;0.70;0.50;;;11.30;99.90;;;;;;4975489;28;20445;-85
2021/09/02 05:52:54;;;;;;;0.70;0.50;;;11.30;99.90;;;;;;4975678;28;20580;-85
2021/09/02 05:55:21;;;;;;;3.23;0.77;;;11.30;99.90;;;;;;4975230;28;20945;-85
2021/09/02 05:57:49;;;;;;;0.90;0.70;;;11.30;99.90;;;;;;4975478;28;20477;-85
2021/09/02 06:00:16;;;;;;;1.03;0.60;;;11.30;99.90;;;;;;4975139;28;20479;-85
2021/09/02 06:02:43;;;;;;;2.00;0.80;;;11.40;99.90;;;;;;4975266;28;20464;-85
2021/09/02 06:05:10;;;;;;;1.00;0.60;;;11.40;99.90;;;;;;4975497;28;20454;-85
2021/09/02 06:07:37;;;;;;;0.50;0.50;;;11.40;99.90;;;;;;4975248;28;20453;-85
2021/09/02 06:10:05;;;;;;;3.00;1.10;;;11.50;99.90;;;;;;4974905;28;20453;-85
2021/09/02 06:12:32;;;;;;;5.50;1.40;;;11.50;99.90;;;;;;4975150;28;20468;-84
2021/09/02 06:15:00;;;;;;;1.13;0.77;;;11.50;99.90;;;;;;4975133;28;20480;-85
2021/09/02 06:17:26;;;;;;;1.63;1.53;;;11.60;99.90;;;;;;4975030;28;20557;-85
2021/09/02 06:19:53;;;;;;;1.10;1.00;;;11.70;99.90;;;;;;4975056;28;20446;-84
2021/09/02 06:22:20;;;;;;;1.10;1.00;;;11.80;99.90;;;;;;4974601;28;20460;-84
2021/09/02 06:24:47;;;;;;;1.27;0.80;;;11.90;99.90;;;;;;4974597;28;20473;-85
2021/09/02 06:27:14;;;;;;;2.33;0.67;;;12.00;99.90;;;;;;4975374;28;20937;-85
2021/09/02 06:29:40;;;;;;;1.17;0.70;;;12.10;99.90;;;;;;4974900;28;20453;-85
2021/09/02 06:32:09;;;;;;;1.23;1.13;;;12.30;99.90;;;;;;4974658;28;20814;-85
2021/09/02 06:34:35;;;;;;;1.00;0.80;;;12.40;99.90;;;;;;4974740;28;20502;-84
2021/09/02 06:37:02;;;;;;;1.17;0.77;;;12.60;99.90;;;;;;4974426;28;20453;-84
2021/09/02 06:39:29;;;;;;;1.27;0.60;;;12.70;99.90;;;;;;4974552;28;20434;-85
2021/09/02 06:41:56;;;;;;;1.73;0.97;;;12.90;99.90;;;;;;4974362;28;20945;-85
2021/09/02 06:44:22;;;;;;;1.33;0.80;;;13.00;99.90;;;;;;4974696;28;20469;-85
2021/09/02 06:46:49;;;;;;;1.80;1.43;;;13.10;99.90;;;;;;4974389;28;20453;-84
2021/09/02 06:49:19;;;;;;;2.57;0.80;;;13.20;99.90;;;;;;4974464;28;21015;-85
2021/09/02 06:51:46;;;;;;;1.60;1.17;;;13.30;99.90;;;;;;4974665;28;20438;-84
2021/09/02 06:54:13;;;;;;;1.53;1.43;;;13.40;99.90;;;;;;4974409;28;20500;-84
2021/09/02 06:56:40;;;;;;;1.80;1.00;;;13.50;99.90;;;;;;4974301;28;20437;-83
2021/09/02 06:59:06;;;;;;;4.00;1.43;;;13.70;99.90;;;;;;4974868;28;20426;-84
2021/09/02 07:01:33;;;;;;;3.40;1.10;;;13.80;99.90;;;;;;4974545;28;20433;-83
2021/09/02 07:04:00;;;;;;;5.10;1.10;;;13.90;99.90;;;;;;4974441;28;20461;-84
2021/09/02 07:06:28;;;;;;;3.43;1.40;;;13.90;99.90;;;;;;4974219;28;20410;-84
2021/09/02 07:08:55;;;;;;;1.10;1.00;;;14.00;99.90;;;;;;4974199;28;20441;-83
2021/09/02 07:11:22;;;;;;;1.80;0.80;;;14.10;99.90;;;;;;4974137;28;20952;-84
2021/09/02 07:13:48;;;;;;;1.67;1.40;;;14.30;99.90;;;;;;4974214;28;20489;-84
2021/09/02 07:16:15;;;;;;;1.83;0.97;;;14.50;99.90;;;;;;4974411;28;20438;-84
2021/09/02 07:18:42;;;;;;;2.00;1.07;;;14.60;99.90;;;;;;4974186;28;20422;-84
2021/09/02 07:21:09;;;;;;;2.90;1.23;;;14.70;99.90;;;;;;4974342;28;20422;-85
2021/09/02 07:23:37;;;;;;;1.40;1.27;;;14.80;99.90;;;;;;4974251;28;20473;-84
2021/09/02 07:26:04;;;;;;;0.90;0.63;;;14.90;99.90;;;;;;4974255;28;20473;-84
2021/09/02 07:28:30;;;;;;;1.67;1.20;;;15.00;99.90;;;;;;4973976;28;20797;-84
2021/09/02 07:30:57;;;;;;;1.67;1.30;;;15.20;99.90;;;;;;4974265;28;20456;-84
2021/09/02 07:33:24;;;;;;;2.83;1.23;;;15.30;99.90;;;;;;4975532;28;20519;-84
2021/09/02 07:35:51;;;;;;;3.33;1.10;;;15.50;99.90;;;;;;4977692;28;20456;-84
2021/09/02 07:38:17;;;;;;;4.77;1.40;;;15.70;99.90;;;;;;4977888;28;20457;-83
2021/09/02 07:40:45;;;;;;;1.43;1.27;;;15.70;99.90;;;;;;4977542;28;20963;-83
2021/09/02 07:43:12;;;;;;;2.40;1.33;;;15.80;99.90;;;;;;4977974;28;20464;-82
2021/09/02 07:45:39;;;;;;;0.93;0.83;;;16.00;99.90;;;;;;4977741;28;20449;-83
2021/09/02 07:48:06;;;;;;;1.60;0.93;;;16.20;99.90;;;;;;4977792;28;20484;-85
2021/09/02 07:50:33;;;;;;;0.83;0.70;;;16.40;99.90;;;;;;4977895;28;20452;-84
2021/09/02 07:53:00;;;;;;;1.40;0.90;;;16.60;99.90;;;;;;4977540;28;20473;-83
2021/09/02 07:55:27;;;;;;;1.60;1.50;;;16.80;99.90;;;;;;4977748;28;20460;-83
2021/09/02 07:57:55;;;;;;;2.40;1.60;;;16.90;99.90;;;;;;4977496;28;20457;-83
2021/09/02 08:00:21;;;;;;;2.67;1.33;;;17.00;99.90;;;;;;4977283;28;20450;-83
2021/09/02 08:02:48;;;;;;;2.40;0.83;;;17.00;99.90;;;;;;4977423;28;20448;-82
2021/09/02 08:05:15;;;;;;;1.93;1.40;;;17.10;99.90;;;;;;4977861;28;20476;-83
2021/09/02 08:07:50;;;;;;;0.90;0.80;;;17.20;99.90;;;;;;4977490;28;20553;-83
2021/09/02 08:10:18;;;;;;;3.47;1.60;;;17.30;99.90;;;;;;4977090;28;20952;-83
2021/09/02 08:12:45;;;;;;;3.00;0.90;;;17.50;99.90;;;;;;4977303;28;20457;-83
2021/09/02 08:15:14;;;;;;;1.73;0.97;;;17.70;99.90;;;;;;4976898;28;21130;-83
2021/09/02 08:17:41;;;;;;;1.20;1.00;;;17.80;99.90;;;;;;4976952;28;20824;-83
2021/09/02 08:20:09;;;;;;;3.20;0.80;;;17.90;99.90;;;;;;4977210;28;20545;-82
2021/09/02 08:22:37;;;;;;;1.10;0.97;;;18.00;99.90;;;;;;4976796;28;20944;-82
2021/09/02 08:25:05;;;;;;;1.00;1.00;;;18.00;99.90;;;;;;4977230;28;20430;-83
2021/09/02 08:27:31;;;;;;;2.60;1.30;;;18.10;99.90;;;;;;4977052;28;20434;-83
2021/09/02 08:29:58;;;;;;;1.87;1.17;;;18.10;99.90;;;;;;4976984;28;20429;-83
2021/09/02 08:32:26;;;;;;;0.70;0.70;;;18.20;99.90;;;;;;4976926;28;20430;-82
2021/09/02 08:34:53;;;;;;;3.40;1.30;;;18.20;99.90;;;;;;4976791;28;20493;-82
2021/09/02 08:37:20;;;;;;;5.83;1.43;;;18.40;99.90;;;;;;4977093;28;20441;-83
2021/09/02 08:39:47;;;;;;;2.00;1.30;;;18.50;99.90;;;;;;4976808;28;20433;-83
2021/09/02 08:42:15;;;;;;;2.63;1.50;;;18.60;99.90;;;;;;4976687;28;20441;-83
2021/09/02 08:44:43;;;;;;;1.97;1.40;;;18.80;99.90;;;;;;4976372;28;20469;-82
2021/09/02 08:47:11;;;;;;;2.40;1.43;;;18.90;99.90;;;;;;4976640;28;20465;-83
2021/09/02 08:49:39;;;;;;;1.43;1.00;;;19.00;99.90;;;;;;4976293;28;20477;-82
2021/09/02 08:52:06;;;;;;;1.23;0.90;;;19.00;99.90;;;;;;4976589;28;20517;-83
2021/09/02 08:54:34;;;;;;;2.80;1.27;;;19.00;99.90;;;;;;4976056;28;20499;-82
2021/09/02 08:57:01;;;;;;;2.00;1.63;;;19.00;99.90;;;;;;4976830;28;20434;-83
2021/09/02 08:59:28;;;;;;;1.63;1.37;;;19.20;99.90;;;;;;4977562;28;20438;-84
2021/09/02 09:01:54;;;;;;;1.33;1.00;;;19.50;99.90;;;;;;4976278;28;20445;-83
2021/09/02 09:04:21;;;;;;;1.50;0.97;;;19.70;99.90;;;;;;4976093;28;20480;-83
2021/09/02 09:06:50;;;;;;;4.83;1.33;;;19.90;99.90;;;;;;4977205;28;20441;-83
2021/09/02 09:09:18;;;;;;;2.67;1.67;;;20.10;99.90;;;;;;4976503;28;20525;-82
2021/09/02 09:11:48;;;;;;;2.30;1.10;;;20.30;99.90;;;;;;4976208;28;20433;-82
2021/09/02 09:14:17;;;;;;;1.10;0.83;;;20.40;99.90;;;;;;4976205;28;20497;-82
2021/09/02 09:16:50;;;;;;;1.53;0.90;;;20.50;99.90;;;;;;4975836;28;20914;-83
2021/09/02 09:19:37;;;;;;;1.87;1.23;;;20.70;99.90;;;;;;4976097;28;20442;-83
2021/09/02 09:22:06;;;;;;;1.73;1.00;;;21.10;99.90;;;;;;4976051;28;20448;-83
2021/09/02 09:24:43;;;;;;;1.20;0.87;;;21.40;99.90;;;;;;4975774;28;20461;-83
2021/09/02 09:27:10;;;;;;;1.33;1.20;;;21.70;99.90;;;;;;4976130;28;20444;-82
2021/09/02 09:29:37;;;;;;;3.47;1.33;;;21.90;99.90;;;;;;4975982;28;20441;-83
2021/09/02 09:32:13;;;;;;;1.97;1.70;;;21.70;99.90;;;;;;4975526;28;20792;-83
2021/09/02 09:34:48;;;;;;;2.03;1.10;;;21.50;99.90;;;;;;4975397;28;21038;-83
2021/09/02 09:37:16;;;;;;;3.70;1.57;;;21.40;99.90;;;;;;4975820;28;20428;-82
2021/09/02 09:39:44;;;;;;;4.20;1.90;;;21.50;99.90;;;;;;4975769;28;20447;-82
2021/09/02 09:42:11;;;;;;;1.57;1.00;;;21.60;99.90;;;;;;4975695;28;20445;-82
2021/09/02 09:44:41;;;;;;;1.90;0.90;;;21.70;99.90;;;;;;4975673;28;20472;-83
2021/09/02 09:47:10;;;;;;;3.60;1.57;;;22.00;99.90;;;;;;4975740;28;20461;-82
2021/09/02 09:49:47;;;;;;;1.83;0.70;;;22.10;99.90;;;;;;4975464;28;20477;-82
2021/09/02 09:52:26;;;;;;;1.13;0.80;;;22.10;99.90;;;;;;4975536;28;20428;-82
2021/09/02 09:54:54;;;;;;;2.10;1.10;;;22.10;99.90;;;;;;4975350;28;20543;-82
2021/09/02 09:57:21;;;;;;;1.10;0.93;;;22.00;99.90;;;;;;4974326;28;20448;-82
2021/09/02 09:59:49;;;;;;;1.23;1.07;;;21.90;99.90;;;;;;4976070;28;20806;-82
2021/09/02 10:02:17;;;;;;;2.60;1.03;;;21.70;99.90;;;;;;4975137;28;20527;-83
2021/09/02 10:04:45;;;;;;;1.93;0.83;;;21.70;99.90;;;;;;4975019;28;20461;-82
2021/09/02 10:07:16;;;;;;;1.50;1.10;;;21.80;99.90;;;;;;4975002;28;20941;-83
2021/09/02 10:09:45;;;;;;;1.03;0.97;;;21.90;99.90;;;;;;4975459;28;20437;-83
2021/09/02 10:12:13;;;;;;;1.07;0.90;;;21.90;99.90;;;;;;4975219;28;20433;-83
2021/09/02 10:14:40;;;;;;;1.47;1.07;;;21.70;99.90;;;;;;4975027;28;20520;-82
2021/09/02 10:17:06;;;;;;;1.57;0.80;;;21.70;99.90;;;;;;4975096;28;20445;-82
2021/09/02 10:19:35;;;;;;;3.43;1.63;;;21.80;99.90;;;;;;4975822;28;20536;-82
2021/09/02 10:22:04;;;;;;;0.70;0.67;;;21.80;99.90;;;;;;4974729;28;20922;-83
2021/09/02 10:24:35;;;;;;;1.27;1.00;;;21.70;99.90;;;;;;4974898;28;20515;-83
2021/09/02 10:27:25;;;;;;;0.90;0.90;;;21.80;99.90;;;;;;4975033;28;20453;-82
2021/09/02 10:29:54;;;;;;;1.67;1.17;;;21.60;99.90;;;;;;4974325;28;20829;-82
2021/09/02 10:32:30;;;;;;;1.10;1.00;;;21.50;99.90;;;;;;4974673;28;20785;-82
2021/09/02 10:35:31;;;;;;;0.70;0.70;;;21.50;99.90;;;;;;4974420;28;20500;-82
2021/09/02 10:37:58;;;;;;;2.13;1.00;;;21.50;99.90;;;;;;4975207;28;20454;-83
2021/09/02 10:40:49;;;;;;;1.70;1.00;;;21.60;99.90;;;;;;4974753;28;20433;-82
2021/09/02 10:43:50;;;;;;;2.33;1.30;;;21.60;99.90;;;;;;4974766;28;20560;-81
2021/09/02 10:46:35;;;;;;;1.70;1.00;;;21.80;99.90;;;;;;4974624;28;20964;-89
2021/09/02 10:49:22;;;;;;;1.07;0.80;;;21.90;99.90;;;;;;4974616;28;20519;-86
2021/09/02 10:51:51;;;;;;;1.53;1.00;;;21.90;99.90;;;;;;4974944;28;20447;-85
2021/09/02 10:54:22;;;;;;;1.50;0.90;;;21.90;99.90;;;;;;4975425;28;20496;-87
2021/09/02 10:56:58;;;;;;;1.30;1.10;;;22.00;99.90;;;;;;4974864;28;20445;-86
2021/09/02 10:59:43;;;;;;;1.67;1.17;;;22.30;99.90;;;;;;4974380;28;20921;-86
2021/09/02 11:02:12;;;;;;;0.80;0.70;;;22.40;99.90;;;;;;4974552;28;20437;-81
2021/09/02 11:04:39;;;;;;;0.77;0.70;;;22.40;99.90;;;;;;4974470;28;20469;-83
2021/09/02 11:07:07;;;;;;;1.80;1.70;;;22.50;99.90;;;;;;4975096;28;20447;-82
2021/09/02 11:09:35;;;;;;;1.67;0.80;;;22.50;99.90;;;;;;4978371;28;20444;-83
2021/09/02 11:12:03;;;;;;;1.20;0.90;;;22.30;99.90;;;;;;4978451;28;20433;-82
2021/09/02 11:14:30;;;;;;;1.63;1.10;;;22.30;99.90;;;;;;4978114;28;20484;-82
2021/09/02 11:17:05;;;;;;;3.67;1.13;;;22.20;99.90;;;;;;4978471;28;20452;-83
2021/09/02 11:19:33;;;;;;;2.27;1.23;;;21.90;99.90;;;;;;4978078;28;20428;-82
2021/09/02 11:22:09;;;;;;;1.10;1.00;;;21.80;99.90;;;;;;4978054;28;20440;-83
2021/09/02 11:24:38;;;;;;;0.90;0.90;;;21.70;99.90;;;;;;4977837;28;20984;-82
2021/09/02 11:27:05;;;;;;;1.10;0.70;;;21.80;99.90;;;;;;4977948;28;20912;-82
2021/09/02 11:29:32;;;;;;;1.40;1.20;;;21.80;99.90;;;;;;4978191;28;20447;-81
2021/09/02 11:32:01;;;;;;;1.03;0.90;;;21.90;99.90;;;;;;4978137;28;20484;-81
2021/09/02 11:34:28;;;;;;;1.67;0.83;;;21.90;99.90;;;;;;4977955;28;20488;-81
2021/09/02 11:36:55;;;;;;;0.73;0.73;;;22.00;99.90;;;;;;4977769;28;20928;-81
2021/09/02 11:39:27;;;;;;;1.77;1.13;;;21.90;99.90;;;;;;4977985;28;20433;-83
2021/09/02 11:41:59;;;;;;;3.53;1.10;;;21.90;99.90;;;;;;4978051;28;20433;-84
2021/09/02 11:44:26;;;;;;;1.90;1.00;;;22.00;98.80;;;;;;4977639;28;20965;-85
2021/09/02 11:46:54;;;;;;;2.00;0.83;;;21.80;99.70;;;;;;4977684;28;20413;-82
2021/09/02 11:49:22;;;;;;;1.50;1.00;;;21.90;99.50;;;;;;4977431;28;20484;-83
2021/09/02 11:51:57;;;;;;;1.67;1.00;;;21.90;99.40;;;;;;4978287;28;20433;-83
2021/09/02 11:54:24;;;;;;;1.10;0.60;;;21.90;97.90;;;;;;4977595;28;20555;-82
2021/09/02 11:56:51;;;;;;;1.43;0.80;;;21.80;97.60;;;;;;4977684;28;20464;-83
2021/09/02 11:59:19;;;;;;;0.63;0.60;;;21.80;97.10;;;;;;4977632;28;20437;-82
2021/09/02 12:01:47;;;;;;;0.93;0.73;;;21.80;97.50;;;;;;4977608;28;20452;-81
2021/09/02 12:04:18;;;;;;;1.53;0.80;;;21.80;96.70;;;;;;4977198;28;20999;-81
2021/09/02 12:06:48;;;;;;;0.70;0.70;;;21.70;96.90;;;;;;4977503;28;20436;-81
2021/09/02 12:09:19;;;;;;;0.97;0.87;;;21.70;97.60;;;;;;4977432;28;20456;-82
2021/09/02 12:11:46;;;;;;;0.80;0.60;;;21.70;97.40;;;;;;4977410;28;20472;-81
2021/09/02 12:14:19;;;;;;;1.53;0.93;;;21.70;98.10;;;;;;4976964;28;20468;-82
2021/09/02 12:16:47;;;;;;;1.27;0.77;;;21.70;97.80;;;;;;4977159;28;20449;-83
2021/09/02 12:19:14;;;;;;;1.00;0.87;;;21.70;99.00;;;;;;4976386;28;20799;-82
2021/09/02 12:21:41;;;;;;;0.70;0.70;;;21.70;97.80;;;;;;4977205;28;20456;-82
2021/09/02 12:24:11;;;;;;;1.70;1.10;;;21.50;97.70;;;;;;4976802;28;20480;-82
2021/09/02 12:26:47;;;;;;;0.53;0.53;;;21.40;97.70;;;;;;4976935;28;20909;-83
2021/09/02 12:29:15;;;;;;;2.77;1.13;;;21.40;97.50;;;;;;4977066;28;20979;-82
2021/09/02 12:31:42;;;;;;;0.80;0.60;;;21.40;98.10;;;;;;4977243;28;20453;-82
2021/09/02 12:34:11;;;;;;;2.73;1.23;;;21.40;97.80;;;;;;4976940;28;20500;-82
2021/09/02 12:36:40;;;;;;;0.90;0.60;;;21.40;97.60;;;;;;4976837;28;20563;-82
2021/09/02 12:39:17;;;;;;;2.40;0.87;;;21.40;98.40;;;;;;4976964;28;20452;-82
2021/09/02 12:41:45;;;;;;;1.60;0.83;;;21.40;97.20;;;;;;4976929;28;20440;-82
2021/09/02 12:44:13;;;;;;;0.90;0.67;;;21.30;98.30;;;;;;4976466;28;20477;-82
2021/09/02 12:46:52;;;;;;;1.33;0.70;;;21.20;97.80;;;;;;4976922;28;20453;-82
2021/09/02 12:49:20;;;;;;;1.40;1.00;;;21.20;98.10;;;;;;4976395;28;20488;-83
2021/09/02 12:52:06;;;;;;;2.30;1.00;;;21.30;98.00;;;;;;4976650;28;20456;-83
2021/09/02 12:55:09;;;;;;;1.70;0.63;;;21.20;96.80;;;;;;4975699;28;20507;-83